createdAt,value
2019-01-28T00:00:28.591Z,986.13
2019-01-28T00:01:28.590Z,986.15
2019-01-28T00:02:28.566Z,986.26
2019-01-28T00:03:28.556Z,986.25
2019-01-28T00:04:28.564Z,986.21
2019-01-28T00:05:28.537Z,986.21
2019-01-28T00:06:28.522Z,986.27
2019-01-28T00:07:28.540Z,986.25
2019-01-28T00:08:28.504Z,986.26
2019-01-28T00:09:28.510Z,986.27
2019-01-28T00:10:28.482Z,986.26
2019-01-28T00:11:28.472Z,986.25
2019-01-28T00:12:28.467Z,986.19
2019-01-28T00:13:28.458Z,986.28
2019-01-28T04:59:49.774Z,984.45
2019-01-28T05:00:40.937Z,984.47
2019-01-28T05:01:40.925Z,984.37
2019-01-28T05:02:40.908Z,984.43
2019-01-28T05:03:40.903Z,984.42
2019-01-28T05:04:40.887Z,984.39
2019-01-28T05:05:40.893Z,984.43
2019-01-28T05:06:40.873Z,984.43
2019-01-28T05:07:40.853Z,984.36
2019-01-28T05:08:40.858Z,984.39
2019-01-28T05:09:40.852Z,984.38
2019-01-28T05:10:40.847Z,984.42
2019-01-28T05:11:40.818Z,984.36
2019-01-28T05:12:40.810Z,984.41
2019-01-28T05:13:40.790Z,984.36
2019-01-28T05:14:40.781Z,984.45
2019-01-28T05:15:40.796Z,984.40
2019-01-28T05:16:40.776Z,984.41
2019-01-28T05:17:40.752Z,984.38
2019-01-28T05:18:40.741Z,984.23
2019-01-28T05:19:40.729Z,984.41
2019-01-28T05:20:40.743Z,984.41
2019-01-28T05:21:40.765Z,984.36
2019-01-28T05:22:40.710Z,984.42
2019-01-28T05:23:40.689Z,984.43
2019-01-28T05:24:40.677Z,984.32
2019-01-28T05:25:40.680Z,984.34
2019-01-28T05:26:40.653Z,984.33
2019-01-28T05:27:40.644Z,984.34
2019-01-28T05:28:40.644Z,984.33
2019-01-28T05:29:40.622Z,984.31
2019-01-28T05:30:40.627Z,984.31
2019-01-28T05:31:40.600Z,984.39
2019-01-28T05:32:40.591Z,984.28
2019-01-28T05:33:40.582Z,984.37
2019-01-28T05:34:40.581Z,984.26
2019-01-28T05:35:40.634Z,984.35
2019-01-28T05:36:40.548Z,984.30
2019-01-28T05:37:40.543Z,984.35
2019-01-28T05:38:40.529Z,984.31
2019-01-28T05:39:40.717Z,984.45
2019-01-28T05:40:40.521Z,984.26
2019-01-28T05:41:40.523Z,984.37
2019-01-28T05:42:40.496Z,984.36
2019-01-28T05:43:40.476Z,984.31
2019-01-28T05:44:40.465Z,984.20
2019-01-28T05:45:40.458Z,984.23
2019-01-28T05:46:40.460Z,984.24
2019-01-28T05:47:40.442Z,984.18
2019-01-28T05:48:40.425Z,984.31
2019-01-28T05:49:40.416Z,984.28
2019-01-28T05:50:40.401Z,984.34
2019-01-28T05:51:40.407Z,984.26
2019-01-28T05:52:40.380Z,984.18
2019-01-28T05:53:40.424Z,984.34
2019-01-28T05:54:40.374Z,984.26
2019-01-28T05:55:40.352Z,984.26
2019-01-28T05:56:40.362Z,984.34
2019-01-28T05:57:40.328Z,984.27
2019-01-28T05:58:40.316Z,984.35
2019-01-28T05:59:40.304Z,984.23
2019-01-28T06:00:40.308Z,984.30
2019-01-28T06:01:40.306Z,984.38
2019-01-28T06:02:40.276Z,984.29
2019-01-28T06:03:40.271Z,984.42
2019-01-28T06:04:40.255Z,984.31
2019-01-28T06:05:40.259Z,984.26
2019-01-28T06:06:40.252Z,984.32
2019-01-28T06:07:40.238Z,984.38
2019-01-28T06:08:40.226Z,984.42
2019-01-28T06:09:40.205Z,984.38
2019-01-28T06:10:40.194Z,984.38
2019-01-28T06:11:40.192Z,984.41
2019-01-28T06:12:40.190Z,984.31
2019-01-28T06:13:40.230Z,984.33
2019-01-28T06:14:40.156Z,984.42
2019-01-28T06:15:40.140Z,984.46
2019-01-28T06:16:40.155Z,984.47
2019-01-28T06:17:40.118Z,984.42
2019-01-28T06:18:40.111Z,984.50
2019-01-28T06:19:40.103Z,984.40
2019-01-28T06:20:40.106Z,984.46
2019-01-28T06:21:40.099Z,984.47
2019-01-28T06:22:40.065Z,984.46
2019-01-28T06:23:40.068Z,984.50
2019-01-28T06:24:40.043Z,984.38
2019-01-28T06:25:40.037Z,984.47
2019-01-28T06:26:40.044Z,984.46
2019-01-28T06:27:40.014Z,984.45
2019-01-28T06:28:40.009Z,984.47
2019-01-28T06:29:39.990Z,984.52
2019-01-28T06:30:39.980Z,984.46
2019-01-28T06:31:39.994Z,984.50
2019-01-28T06:32:39.978Z,984.54
2019-01-28T06:33:39.951Z,984.53
2019-01-28T06:34:40.021Z,984.60
2019-01-28T06:35:39.927Z,984.59
2019-01-28T06:36:40.002Z,984.51
2019-01-28T06:37:39.911Z,984.64
2019-01-28T06:38:39.894Z,984.56
2019-01-28T06:39:39.887Z,984.61
2019-01-28T06:40:39.886Z,984.50
2019-01-28T06:41:39.908Z,984.67
2019-01-28T06:42:39.854Z,984.65
2019-01-28T06:43:39.848Z,984.68
2019-01-28T06:44:39.843Z,984.53
2019-01-28T06:45:39.822Z,984.60
2019-01-28T06:46:39.841Z,984.66
2019-01-28T06:47:46.670Z,984.72
2019-01-28T06:48:40.799Z,984.67
2019-01-28T06:49:39.798Z,984.69
2019-01-28T06:50:39.781Z,984.69
2019-01-28T06:51:39.759Z,984.75
2019-01-28T06:52:39.767Z,984.77
2019-01-28T06:53:39.743Z,984.76
2019-01-28T06:54:39.727Z,984.75
2019-01-28T06:55:39.718Z,984.68
2019-01-28T06:56:39.728Z,984.69
2019-01-28T06:57:39.722Z,984.81
2019-01-28T06:58:39.684Z,984.72
2019-01-28T06:59:39.679Z,984.79
2019-01-28T07:00:39.669Z,984.94
2019-01-28T07:01:39.656Z,984.83
2019-01-28T07:02:39.665Z,984.74
2019-01-28T07:03:39.632Z,984.93
2019-01-28T07:04:39.627Z,984.88
2019-01-28T07:05:39.619Z,984.93
2019-01-28T07:06:39.602Z,984.89
2019-01-28T07:07:39.608Z,984.91
2019-01-28T07:08:39.585Z,984.92
2019-01-28T07:09:39.573Z,984.87
2019-01-28T07:10:39.564Z,984.93
2019-01-28T07:11:39.550Z,984.94
2019-01-28T07:12:39.559Z,984.94
2019-01-28T07:13:39.527Z,984.86
2019-01-28T07:14:39.519Z,984.89
2019-01-28T07:15:39.513Z,984.95
2019-01-28T07:16:39.495Z,985.00
2019-01-28T07:17:39.505Z,985.00
2019-01-28T07:18:39.509Z,984.96
2019-01-28T07:19:39.465Z,984.98
2019-01-28T07:20:39.457Z,985.00
2019-01-28T07:21:39.455Z,984.99
2019-01-28T07:22:39.447Z,985.04
2019-01-28T07:23:39.419Z,985.07
2019-01-28T07:24:39.438Z,985.13
2019-01-28T07:25:39.403Z,985.13
2019-01-28T07:26:39.400Z,985.16
2019-01-28T07:27:39.415Z,985.14
2019-01-28T07:28:39.368Z,985.22
2019-01-28T07:29:39.357Z,985.12
2019-01-28T07:30:39.344Z,985.10
2019-01-28T07:31:39.337Z,985.28
2019-01-28T07:32:39.343Z,985.20
2019-01-28T07:33:39.318Z,985.20
2019-01-28T07:34:39.313Z,985.24
2019-01-28T07:35:39.300Z,985.25
2019-01-28T07:36:39.286Z,985.26
2019-01-28T07:37:39.297Z,985.24
2019-01-28T07:38:39.270Z,985.31
2019-01-28T07:39:39.257Z,985.37
2019-01-28T07:40:39.247Z,985.38
2019-01-28T07:41:39.230Z,985.36
2019-01-28T07:42:39.251Z,985.34
2019-01-28T07:43:39.210Z,985.38
2019-01-28T07:44:39.203Z,985.31
2019-01-28T07:45:45.028Z,985.31
2019-01-28T07:46:40.176Z,985.36
2019-01-28T07:47:39.186Z,985.35
2019-01-28T07:48:39.185Z,985.31
2019-01-28T07:49:39.157Z,985.31
2019-01-28T07:50:39.144Z,985.42
2019-01-28T07:51:39.128Z,985.37
2019-01-28T07:52:39.135Z,985.41
2019-01-28T07:53:39.103Z,985.46
2019-01-28T07:54:39.093Z,985.48
2019-01-28T07:55:39.085Z,985.34
2019-01-28T07:56:39.084Z,985.39
2019-01-28T07:57:39.086Z,985.35
2019-01-28T07:58:39.051Z,985.39
2019-01-28T07:59:39.044Z,985.40
2019-01-28T08:00:39.032Z,985.36
2019-01-28T08:01:39.020Z,985.51
2019-01-28T08:02:39.034Z,985.43
2019-01-28T08:03:39.000Z,985.44
2019-01-28T08:04:39.053Z,985.42
2019-01-28T08:05:38.983Z,985.43
2019-01-28T08:06:39.089Z,985.50
2019-01-28T08:07:38.983Z,985.43
2019-01-28T08:08:39.029Z,985.55
2019-01-28T08:09:38.941Z,985.53
2019-01-28T08:10:38.930Z,985.58
2019-01-28T08:11:38.922Z,985.57
2019-01-28T08:12:38.924Z,985.52
2019-01-28T08:13:38.896Z,985.61
2019-01-28T08:14:38.893Z,985.53
2019-01-28T08:15:38.879Z,985.59
2019-01-28T08:16:38.861Z,985.58
2019-01-28T08:17:38.877Z,985.56
2019-01-28T08:18:38.850Z,985.62
2019-01-28T08:19:38.837Z,985.63
2019-01-28T08:20:38.828Z,985.57
2019-01-28T08:21:38.811Z,985.65
2019-01-28T08:22:38.824Z,985.54
2019-01-28T08:23:38.789Z,985.61
2019-01-28T08:24:38.793Z,985.62
2019-01-28T08:25:38.772Z,985.64
2019-01-28T08:26:38.760Z,985.67
2019-01-28T08:27:38.773Z,985.68
2019-01-28T08:28:38.737Z,985.72
2019-01-28T08:29:38.724Z,985.67
2019-01-28T08:30:38.721Z,985.72
2019-01-28T08:31:38.704Z,985.75
2019-01-28T08:32:38.711Z,985.72
2019-01-28T08:33:38.683Z,985.78
2019-01-28T08:34:38.671Z,985.71
2019-01-28T08:35:38.664Z,985.68
2019-01-28T08:36:38.656Z,985.72
2019-01-28T08:37:38.674Z,985.64
2019-01-28T08:38:38.638Z,985.65
2019-01-28T08:39:38.631Z,985.73
2019-01-28T08:40:38.610Z,985.71
2019-01-28T08:41:38.598Z,985.66
2019-01-28T08:42:38.610Z,985.68
2019-01-28T08:43:38.602Z,985.72
2019-01-28T08:44:38.577Z,985.74
2019-01-28T08:45:38.556Z,985.70
2019-01-28T08:46:38.544Z,985.65
2019-01-28T08:47:38.551Z,985.58
2019-01-28T08:48:38.523Z,985.74
2019-01-28T08:49:38.513Z,985.74
2019-01-28T08:50:38.514Z,985.73
2019-01-28T08:51:38.502Z,985.77
2019-01-28T08:52:38.507Z,985.83
2019-01-28T08:53:38.478Z,985.77
2019-01-28T08:54:38.464Z,985.83
2019-01-28T08:55:38.453Z,985.95
2019-01-28T08:56:38.448Z,985.86
2019-01-28T08:57:38.491Z,985.80
2019-01-28T08:58:38.435Z,985.91
2019-01-28T08:59:38.409Z,985.92
2019-01-28T09:00:38.398Z,985.91
2019-01-28T09:01:38.411Z,985.92
2019-01-28T09:02:38.426Z,986.02
2019-01-28T09:03:38.377Z,985.91
2019-01-28T09:04:38.358Z,985.92
2019-01-28T09:05:38.349Z,986.00
2019-01-28T09:06:38.341Z,986.03
2019-01-28T09:07:38.324Z,985.95
2019-01-28T09:08:39.630Z,986.04
2019-01-28T09:09:38.313Z,986.03
2019-01-28T09:10:38.294Z,986.02
2019-01-28T09:11:38.281Z,986.03
2019-01-28T09:12:38.271Z,986.07
2019-01-28T09:13:38.296Z,986.06
2019-01-28T09:14:38.255Z,986.06
2019-01-28T09:15:38.241Z,986.18
2019-01-28T09:16:38.230Z,986.14
2019-01-28T09:17:38.219Z,986.21
2019-01-28T09:18:38.234Z,986.16
2019-01-28T09:19:38.210Z,986.22
2019-01-28T09:20:38.187Z,986.22
2019-01-28T09:21:38.175Z,986.30
2019-01-28T09:22:38.175Z,986.28
2019-01-28T09:23:38.173Z,986.31
2019-01-28T09:24:38.150Z,986.32
2019-01-28T09:25:38.163Z,986.27
2019-01-28T09:26:38.155Z,986.34
2019-01-28T09:27:38.118Z,986.38
2019-01-28T09:28:38.119Z,986.39
2019-01-28T09:29:38.093Z,986.38
2019-01-28T09:30:38.090Z,986.53
2019-01-28T09:31:38.076Z,986.50
2019-01-28T09:32:38.086Z,986.53
2019-01-28T09:33:38.073Z,986.49
2019-01-28T09:34:38.041Z,986.54
2019-01-28T09:35:38.029Z,986.65
2019-01-28T09:36:38.021Z,986.61
2019-01-28T09:37:38.016Z,986.68
2019-01-28T09:38:38.021Z,986.66
2019-01-28T09:39:37.993Z,986.69
2019-01-28T09:40:37.975Z,986.68
2019-01-28T09:41:37.967Z,986.70
2019-01-28T09:42:37.966Z,986.65
2019-01-28T09:43:37.980Z,986.72
2019-01-28T09:44:37.940Z,986.69
2019-01-28T09:45:37.928Z,986.75
2019-01-28T09:46:37.910Z,986.72
2019-01-28T09:47:37.905Z,986.83
2019-01-28T09:48:37.913Z,986.84
2019-01-28T09:49:37.926Z,986.87
2019-01-28T09:50:37.879Z,986.94
2019-01-28T09:51:37.884Z,986.94
2019-01-28T09:52:37.849Z,986.93
2019-01-28T09:53:37.857Z,986.95
2019-01-28T09:54:37.827Z,987.02
2019-01-28T09:55:37.819Z,987.08
2019-01-28T09:56:37.819Z,987.04
2019-01-28T09:57:37.796Z,987.06
2019-01-28T09:58:37.805Z,987.08
2019-01-28T09:59:37.792Z,987.10
2019-01-28T10:00:37.766Z,987.12
2019-01-28T10:01:37.754Z,987.15
2019-01-28T10:02:37.746Z,987.17
2019-01-28T10:03:37.769Z,987.15
2019-01-28T10:04:37.725Z,987.15
2019-01-28T10:05:37.719Z,987.21
2019-01-28T10:06:37.700Z,987.25
2019-01-28T10:07:37.794Z,987.29
2019-01-28T10:08:37.697Z,987.27
2019-01-28T10:09:37.672Z,987.27
2019-01-28T10:10:37.659Z,987.34
2019-01-28T10:11:37.667Z,987.32
2019-01-28T10:12:37.637Z,987.33
2019-01-28T10:13:37.650Z,987.33
2019-01-28T10:14:37.633Z,987.37
2019-01-28T10:15:37.608Z,987.35
2019-01-28T10:16:37.595Z,987.41
2019-01-28T10:17:37.604Z,987.38
2019-01-28T10:18:41.915Z,987.38
2019-01-28T10:19:37.563Z,987.49
2019-01-28T10:20:37.577Z,987.48
2019-01-28T10:21:37.543Z,987.44
2019-01-28T10:22:37.535Z,987.46
2019-01-28T10:23:37.541Z,987.55
2019-01-28T10:24:37.518Z,987.51
2019-01-28T10:25:37.555Z,987.54
2019-01-28T10:26:37.494Z,987.52
2019-01-28T10:27:37.489Z,987.54
2019-01-28T10:28:37.499Z,987.53
2019-01-28T10:29:37.456Z,987.57
2019-01-28T10:30:37.454Z,987.65
2019-01-28T10:31:37.437Z,987.65
2019-01-28T10:32:37.439Z,987.68
2019-01-28T10:33:37.447Z,987.71
2019-01-28T10:34:37.405Z,987.72
2019-01-28T10:35:37.404Z,987.78
2019-01-28T10:36:37.385Z,987.73
2019-01-28T10:37:37.390Z,987.75
2019-01-28T10:38:37.384Z,987.70
2019-01-28T10:39:37.358Z,987.79
2019-01-28T10:40:37.344Z,987.85
2019-01-28T10:41:37.334Z,987.81
2019-01-28T10:42:37.323Z,987.81
2019-01-28T10:43:37.344Z,987.88
2019-01-28T10:44:37.316Z,987.97
2019-01-28T10:45:37.328Z,987.96
2019-01-28T10:46:37.284Z,987.98
2019-01-28T10:47:37.275Z,987.98
2019-01-28T10:48:37.263Z,988.02
2019-01-28T10:49:37.267Z,988.02
2019-01-28T10:50:37.254Z,988.06
2019-01-28T10:51:37.228Z,988.13
2019-01-28T10:52:37.219Z,988.16
2019-01-28T10:53:37.207Z,988.09
2019-01-28T10:54:37.215Z,988.22
2019-01-28T10:55:37.197Z,988.17
2019-01-28T10:56:37.184Z,988.22
2019-01-28T10:57:37.163Z,988.22
2019-01-28T10:58:37.172Z,988.23
2019-01-28T10:59:37.162Z,988.24
2019-01-28T11:00:37.255Z,988.25
2019-01-28T11:01:37.126Z,988.33
2019-01-28T11:02:37.131Z,988.30
2019-01-28T11:03:37.103Z,988.30
2019-01-28T11:04:37.112Z,988.35
2019-01-28T11:05:37.098Z,988.35
2019-01-28T11:06:37.071Z,988.29
2019-01-28T11:07:37.060Z,988.36
2019-01-28T11:08:37.053Z,988.41
2019-01-28T11:09:37.154Z,988.43
2019-01-28T11:10:37.091Z,988.45
2019-01-28T11:11:37.031Z,988.48
2019-01-28T11:12:37.090Z,988.53
2019-01-28T11:13:37.113Z,988.48
2019-01-28T11:14:37.015Z,988.52
2019-01-28T11:15:36.999Z,988.60
2019-01-28T11:16:37.003Z,988.60
2019-01-28T11:17:36.967Z,988.61
2019-01-28T11:18:37.064Z,988.57
2019-01-28T11:19:37.065Z,988.63
2019-01-28T11:20:37.013Z,988.51
2019-01-28T11:21:36.949Z,988.59
2019-01-28T11:22:36.922Z,988.63
2019-01-28T11:23:36.985Z,988.66
2019-01-28T11:24:37.027Z,988.68
2019-01-28T11:25:36.945Z,988.73
2019-01-28T11:26:36.882Z,988.70
2019-01-28T11:27:37.015Z,988.75
2019-01-28T11:28:36.941Z,988.76
2019-01-28T11:29:36.855Z,988.69
2019-01-28T11:30:36.958Z,988.72
2019-01-28T11:31:36.846Z,988.74
2019-01-28T11:32:36.956Z,988.76
2019-01-28T11:33:39.503Z,988.77
2019-01-28T11:34:36.899Z,988.76
2019-01-28T11:35:36.938Z,988.77
2019-01-28T11:36:36.777Z,988.75
2019-01-28T11:37:36.873Z,988.82
2019-01-28T11:38:36.826Z,988.88
2019-01-28T11:39:36.899Z,988.88
2019-01-28T11:40:36.731Z,988.89
2019-01-28T11:41:36.831Z,988.92
2019-01-28T11:42:36.794Z,988.85
2019-01-28T11:43:36.711Z,988.93
2019-01-28T11:44:36.723Z,988.93
2019-01-28T11:45:36.807Z,988.98
2019-01-28T11:46:36.717Z,989.02
2019-01-28T11:47:36.651Z,989.00
2019-01-28T11:48:36.716Z,989.00
2019-01-28T11:49:36.698Z,989.05
2019-01-28T11:50:36.633Z,989.05
2019-01-28T11:51:36.613Z,989.05
2019-01-28T11:52:36.600Z,989.06
2019-01-28T11:53:36.592Z,989.11
2019-01-28T11:54:36.600Z,989.13
2019-01-28T11:55:36.570Z,989.17
2019-01-28T11:56:36.567Z,989.18
2019-01-28T11:57:36.573Z,989.18
2019-01-28T11:58:36.536Z,989.24
2019-01-28T11:59:36.563Z,989.12
2019-01-28T12:00:36.517Z,989.33
2019-01-28T12:01:36.508Z,989.28
2019-01-28T12:02:36.495Z,989.42
2019-01-28T12:03:36.485Z,989.38
2019-01-28T12:04:36.500Z,989.28
2019-01-28T12:05:36.479Z,989.41
2019-01-28T12:06:36.485Z,989.41
2019-01-28T12:07:36.462Z,989.47
2019-01-28T12:08:36.437Z,989.49
2019-01-28T12:09:36.473Z,989.48
2019-01-28T12:10:36.465Z,989.58
2019-01-28T12:11:36.405Z,989.51
2019-01-28T12:12:36.420Z,989.58
2019-01-28T12:13:36.420Z,989.61
2019-01-28T12:14:36.409Z,989.54
2019-01-28T12:15:36.367Z,989.66
2019-01-28T12:16:36.369Z,989.69
2019-01-28T12:17:36.344Z,989.59
2019-01-28T12:18:36.333Z,989.66
2019-01-28T12:19:36.342Z,989.67
2019-01-28T12:20:36.324Z,989.74
2019-01-28T12:21:36.307Z,989.74
2019-01-28T12:22:36.305Z,989.72
2019-01-28T12:23:36.305Z,989.65
2019-01-28T12:24:36.307Z,989.73
2019-01-28T12:25:36.264Z,989.73
2019-01-28T12:26:36.273Z,989.63
2019-01-28T12:27:36.249Z,989.77
2019-01-28T12:28:36.238Z,989.81
2019-01-28T12:29:36.306Z,989.87
2019-01-28T12:30:36.219Z,989.89
2019-01-28T12:31:36.893Z,989.85
2019-01-28T12:32:36.194Z,989.93
2019-01-28T12:33:36.178Z,989.97
2019-01-28T12:34:39.566Z,989.98
2019-01-28T12:35:36.179Z,989.95
2019-01-28T12:36:36.150Z,989.99
2019-01-28T12:37:36.139Z,990.05
2019-01-28T12:38:36.135Z,990.13
2019-01-28T12:39:36.213Z,990.15
2019-01-28T12:40:36.114Z,990.16
2019-01-28T12:41:36.117Z,990.11
2019-01-28T12:42:36.091Z,990.20
2019-01-28T12:43:36.089Z,990.17
2019-01-28T12:44:36.097Z,990.15
2019-01-28T12:45:36.056Z,990.22
2019-01-28T12:46:36.047Z,990.30
2019-01-28T12:47:36.048Z,990.30
2019-01-28T12:48:36.085Z,990.35
2019-01-28T12:49:36.044Z,990.40
2019-01-28T12:50:36.013Z,990.44
2019-01-28T12:51:36.009Z,990.37
2019-01-28T12:52:35.986Z,990.43
2019-01-28T12:53:37.549Z,990.46
2019-01-28T12:54:36.047Z,990.46
2019-01-28T12:55:35.966Z,990.44
2019-01-28T12:56:35.954Z,990.54
2019-01-28T12:57:35.937Z,990.47
2019-01-28T12:58:35.930Z,990.56
2019-01-28T12:59:35.932Z,990.55
2019-01-28T13:00:35.932Z,990.59
2019-01-28T13:01:35.897Z,990.58
2019-01-28T13:02:35.887Z,990.60
2019-01-28T13:03:35.876Z,990.65
2019-01-28T13:04:42.026Z,990.65
2019-01-28T13:05:36.900Z,990.78
2019-01-28T13:06:35.849Z,990.69
2019-01-28T13:07:35.834Z,990.80
2019-01-28T13:08:35.849Z,990.69
2019-01-28T13:09:35.817Z,990.81
2019-01-28T13:10:35.827Z,990.84
2019-01-28T13:11:35.811Z,990.91
2019-01-28T13:12:35.791Z,990.88
2019-01-28T13:13:40.973Z,990.93
2019-01-28T13:14:36.763Z,990.92
2019-01-28T13:15:35.775Z,990.95
2019-01-28T13:16:35.751Z,990.94
2019-01-28T13:17:35.757Z,990.94
2019-01-28T13:18:35.728Z,991.05
2019-01-28T13:19:35.710Z,991.11
2019-01-28T13:20:35.723Z,991.11
2019-01-28T13:21:35.701Z,991.07
2019-01-28T13:22:35.686Z,991.17
2019-01-28T13:23:35.679Z,991.17
2019-01-28T13:24:35.669Z,991.21
2019-01-28T13:25:35.693Z,991.29
2019-01-28T13:26:35.639Z,991.18
2019-01-28T13:27:35.631Z,991.20
2019-01-28T13:28:35.633Z,991.31
2019-01-28T13:29:35.617Z,991.27
2019-01-28T13:30:35.621Z,991.39
2019-01-28T13:31:35.600Z,991.29
2019-01-28T13:32:35.577Z,991.27
2019-01-28T13:33:35.567Z,991.37
2019-01-28T13:34:35.561Z,991.44
2019-01-28T13:35:35.573Z,991.47
2019-01-28T13:36:35.561Z,991.48
2019-01-28T13:37:35.538Z,991.47
2019-01-28T13:38:35.551Z,991.56
2019-01-28T13:39:35.508Z,991.55
2019-01-28T13:40:35.526Z,991.67
2019-01-28T13:41:35.489Z,991.62
2019-01-28T13:42:35.485Z,991.60
2019-01-28T13:43:35.484Z,991.66
2019-01-28T13:44:35.455Z,991.63
2019-01-28T13:45:35.467Z,991.60
2019-01-28T13:46:35.437Z,991.66
2019-01-28T13:47:35.439Z,991.64
2019-01-28T13:48:35.421Z,991.66
2019-01-28T13:49:38.279Z,991.69
2019-01-28T13:50:35.434Z,991.77
2019-01-28T13:51:35.387Z,991.85
2019-01-28T13:52:35.377Z,991.79
2019-01-28T13:53:35.365Z,991.88
2019-01-28T13:54:35.359Z,991.91
2019-01-28T13:55:35.366Z,991.92
2019-01-28T13:56:35.346Z,991.86
2019-01-28T13:57:35.382Z,991.98
2019-01-28T13:58:35.314Z,991.91
2019-01-28T13:59:35.308Z,991.93
2019-01-28T14:00:35.316Z,991.92
2019-01-28T14:01:35.296Z,991.98
2019-01-28T14:02:35.273Z,991.99
2019-01-28T14:03:35.272Z,992.08
2019-01-28T14:04:35.255Z,991.97
2019-01-28T14:05:35.263Z,992.12
2019-01-28T14:06:35.243Z,992.06
2019-01-28T14:07:35.227Z,992.12
2019-01-28T14:08:35.219Z,992.14
2019-01-28T14:09:35.202Z,992.15
2019-01-28T14:10:35.224Z,992.20
2019-01-28T14:11:35.182Z,992.21
2019-01-28T14:12:35.177Z,992.19
2019-01-28T14:13:35.162Z,992.32
2019-01-28T14:14:35.156Z,992.24
2019-01-28T14:15:35.162Z,992.22
2019-01-28T14:16:35.133Z,992.31
2019-01-28T14:17:35.121Z,992.41
2019-01-28T14:18:35.109Z,992.38
2019-01-28T14:19:35.097Z,992.44
2019-01-28T14:20:35.107Z,992.45
2019-01-28T14:21:35.078Z,992.44
2019-01-28T14:22:35.070Z,992.52
2019-01-28T14:23:35.070Z,992.53
2019-01-28T14:24:35.051Z,992.52
2019-01-28T14:25:35.060Z,992.55
2019-01-28T14:26:35.033Z,992.53
2019-01-28T14:27:35.019Z,992.60
2019-01-28T14:28:35.010Z,992.60
2019-01-28T14:29:34.996Z,992.67
2019-01-28T14:30:35.021Z,992.66
2019-01-28T14:31:34.986Z,992.71
2019-01-28T14:32:34.977Z,992.76
2019-01-28T14:33:34.955Z,992.83
2019-01-28T14:34:34.947Z,992.79
2019-01-28T14:35:34.971Z,992.80
2019-01-28T14:36:34.932Z,992.87
2019-01-28T14:37:34.918Z,992.88
2019-01-28T14:38:34.913Z,992.91
2019-01-28T14:39:34.904Z,992.83
2019-01-28T14:40:34.927Z,992.90
2019-01-28T14:41:34.876Z,992.93
2019-01-28T14:42:34.876Z,992.90
2019-01-28T14:43:34.857Z,992.98
2019-01-28T14:44:34.847Z,993.06
2019-01-28T14:45:34.871Z,993.00
2019-01-28T14:46:34.823Z,992.99
2019-01-28T14:47:34.815Z,993.05
2019-01-28T14:48:34.819Z,993.07
2019-01-28T14:49:34.795Z,993.03
2019-01-28T14:50:34.807Z,993.09
2019-01-28T14:51:35.769Z,993.13
2019-01-28T14:52:34.768Z,993.13
2019-01-28T14:53:34.751Z,993.16
2019-01-28T14:54:34.745Z,993.19
2019-01-28T14:55:34.782Z,993.26
2019-01-28T14:56:34.723Z,993.25
2019-01-28T14:57:34.717Z,993.21
2019-01-28T14:58:34.706Z,993.31
2019-01-28T14:59:34.693Z,993.40
2019-01-28T15:00:34.681Z,993.34
2019-01-28T15:01:34.689Z,993.26
2019-01-28T15:02:34.670Z,993.45
2019-01-28T15:03:34.653Z,993.35
2019-01-28T15:04:34.642Z,993.39
2019-01-28T15:05:34.633Z,993.41
2019-01-28T15:06:34.641Z,993.47
2019-01-28T15:07:34.613Z,993.50
2019-01-28T15:08:34.610Z,993.55
2019-01-28T15:09:34.588Z,993.51
2019-01-28T15:10:34.579Z,993.54
2019-01-28T15:11:34.585Z,993.48
2019-01-28T15:12:34.555Z,993.54
2019-01-28T15:13:34.549Z,993.57
2019-01-28T15:14:34.550Z,993.58
2019-01-28T15:15:34.530Z,993.56
2019-01-28T15:16:34.542Z,993.64
2019-01-28T15:17:34.509Z,993.65
2019-01-28T15:18:34.500Z,993.69
2019-01-28T15:19:34.485Z,993.67
2019-01-28T15:20:34.501Z,993.73
2019-01-28T15:21:34.493Z,993.67
2019-01-28T15:22:34.461Z,993.87
2019-01-28T15:23:34.445Z,993.79
2019-01-28T15:24:34.439Z,993.83
2019-01-28T15:25:34.423Z,993.85
2019-01-28T15:26:34.487Z,993.89
2019-01-28T15:27:34.405Z,993.93
2019-01-28T15:28:34.396Z,993.83
2019-01-28T15:29:34.380Z,993.88
2019-01-28T15:30:34.372Z,993.97
2019-01-28T15:31:34.390Z,993.97
2019-01-28T15:32:34.360Z,993.99
2019-01-28T15:33:34.341Z,993.99
2019-01-28T15:34:34.351Z,993.97
2019-01-28T15:35:34.323Z,994.04
2019-01-28T15:36:34.368Z,994.05
2019-01-28T15:37:34.297Z,994.06
2019-01-28T15:38:34.302Z,994.08
2019-01-28T15:39:34.277Z,994.13
2019-01-28T15:40:34.272Z,994.14
2019-01-28T15:41:34.258Z,994.17
2019-01-28T15:42:34.267Z,994.14
2019-01-28T15:43:34.233Z,994.19
2019-01-28T15:44:34.227Z,994.21
2019-01-28T15:45:34.216Z,994.23
2019-01-28T15:46:34.213Z,994.25
2019-01-28T15:47:34.225Z,994.34
2019-01-28T15:48:34.186Z,994.28
2019-01-28T15:49:34.214Z,994.32
2019-01-28T15:50:34.166Z,994.27
2019-01-28T15:51:34.153Z,994.37
2019-01-28T15:52:34.179Z,994.39
2019-01-28T15:53:34.132Z,994.36
2019-01-28T15:54:34.121Z,994.43
2019-01-28T15:55:34.115Z,994.48
2019-01-28T15:56:34.108Z,994.50
2019-01-28T15:57:34.111Z,994.47
2019-01-28T15:58:34.084Z,994.49
2019-01-28T15:59:34.069Z,994.58
2019-01-28T16:00:34.063Z,994.60
2019-01-28T16:01:34.057Z,994.54
2019-01-28T16:02:34.064Z,994.63
2019-01-28T16:03:34.033Z,994.53
2019-01-28T16:04:34.021Z,994.57
2019-01-28T16:05:34.021Z,994.63
2019-01-28T16:06:33.995Z,994.58
2019-01-28T16:07:34.012Z,994.65
2019-01-28T16:08:33.989Z,994.67
2019-01-28T16:09:33.964Z,994.66
2019-01-28T16:10:33.959Z,994.67
2019-01-28T16:11:33.953Z,994.73
2019-01-28T16:12:33.958Z,994.69
2019-01-28T16:13:34.185Z,994.65
2019-01-28T16:14:33.912Z,994.71
2019-01-28T16:15:33.902Z,994.68
2019-01-28T16:16:33.902Z,994.75
2019-01-28T16:17:33.901Z,994.75
2019-01-28T16:18:34.999Z,994.76
2019-01-28T16:19:33.862Z,994.75
2019-01-28T16:20:33.859Z,994.78
2019-01-28T16:21:33.852Z,994.81
2019-01-28T16:22:33.855Z,994.81
2019-01-28T16:23:33.821Z,994.89
2019-01-28T16:24:33.817Z,994.90
2019-01-28T16:25:33.799Z,994.88
2019-01-28T16:26:33.788Z,994.89
2019-01-28T16:27:33.794Z,994.88
2019-01-28T16:28:33.773Z,994.91
2019-01-28T16:29:33.768Z,994.94
2019-01-28T16:30:33.746Z,994.93
2019-01-28T16:31:33.743Z,995.00
2019-01-28T16:32:33.747Z,995.10
2019-01-28T16:33:34.039Z,995.01
2019-01-28T16:34:33.708Z,995.10
2019-01-28T16:35:33.697Z,995.13
2019-01-28T16:36:33.687Z,995.04
2019-01-28T16:37:33.695Z,995.13
2019-01-28T16:38:33.667Z,995.21
2019-01-28T16:39:33.668Z,995.22
2019-01-28T16:40:33.648Z,995.21
2019-01-28T16:41:33.640Z,995.29
2019-01-28T16:42:35.563Z,995.27
2019-01-28T16:43:33.611Z,995.28
2019-01-28T16:44:33.604Z,995.30
2019-01-28T16:45:33.600Z,995.31
2019-01-28T16:46:33.579Z,995.28
2019-01-28T16:47:33.586Z,995.39
2019-01-28T16:48:33.558Z,995.35
2019-01-28T16:49:33.547Z,995.41
2019-01-28T16:50:33.544Z,995.47
2019-01-28T16:51:33.538Z,995.42
2019-01-28T16:52:33.551Z,995.49
2019-01-28T16:53:33.508Z,995.50
2019-01-28T16:54:33.517Z,995.57
2019-01-28T16:55:33.490Z,995.64
2019-01-28T16:56:33.483Z,995.58
2019-01-28T16:57:33.484Z,995.64
2019-01-28T16:58:33.467Z,995.64
2019-01-28T16:59:33.451Z,995.64
2019-01-28T17:00:33.438Z,995.64
2019-01-28T17:01:33.424Z,995.68
2019-01-28T17:02:33.443Z,995.71
2019-01-28T17:03:33.410Z,995.79
2019-01-28T17:04:33.388Z,995.77
2019-01-28T17:05:33.379Z,995.75
2019-01-28T17:06:33.367Z,995.78
2019-01-28T17:07:33.366Z,995.81
2019-01-28T17:08:33.375Z,995.78
2019-01-28T17:09:33.348Z,995.76
2019-01-28T17:10:33.330Z,995.90
2019-01-28T17:11:33.321Z,995.90
2019-01-28T17:12:33.312Z,996.07
2019-01-28T17:13:33.321Z,995.98